createdAt,value
2023-05-01T00:00:09.823Z,64.22
2023-05-01T00:03:14.499Z,64.71
2023-05-01T00:06:17.895Z,63.79
2023-05-01T00:09:19.550Z,64.89
2023-05-01T00:12:21.418Z,65.00
2023-05-01T00:15:23.220Z,65.11
2023-05-01T00:18:24.904Z,64.26
2023-05-01T00:21:28.818Z,64.29
2023-05-01T00:24:30.281Z,64.81
2023-05-01T00:27:32.041Z,64.28
2023-05-01T00:30:34.126Z,64.76
2023-05-01T00:33:35.811Z,65.25
2023-05-01T00:36:38.944Z,65.48
2023-05-01T00:39:40.502Z,65.55
2023-05-01T00:42:42.066Z,65.39
2023-05-01T00:45:44.773Z,65.66
2023-05-01T00:48:46.449Z,65.43
2023-05-01T00:51:50.988Z,66.04
2023-05-01T00:54:52.661Z,66.61
2023-05-01T00:57:55.137Z,66.11
2023-05-01T01:00:57.922Z,67.63
2023-05-01T01:03:59.924Z,67.82
2023-05-01T01:07:08.125Z,67.13
2023-05-01T01:10:18.215Z,66.79
2023-05-01T01:13:22.405Z,66.94
2023-05-01T01:16:28.483Z,67.42
2023-05-01T01:19:47.228Z,67.18
2023-05-01T01:22:53.297Z,67.24
2023-05-01T01:26:11.318Z,68.06
2023-05-01T01:29:22.687Z,68.32
2023-05-01T01:32:41.838Z,68.26
2023-05-01T01:35:50.071Z,67.03
2023-05-01T01:38:54.374Z,66.76
2023-05-01T01:41:57.709Z,66.57
2023-05-01T01:45:03.182Z,67.81
2023-05-01T01:48:07.304Z,67.79
2023-05-01T01:51:13.296Z,67.43
2023-05-01T01:54:18.604Z,67.23
2023-05-01T01:57:21.479Z,66.72
2023-05-01T02:00:23.582Z,67.71
2023-05-01T02:03:26.640Z,68.47
2023-05-01T02:06:31.754Z,68.04
2023-05-01T02:09:34.846Z,67.78
2023-05-01T02:12:37.256Z,67.53
2023-05-01T02:15:40.705Z,67.65
2023-05-01T02:18:43.655Z,68.85
2023-05-01T02:21:47.773Z,69.54
2023-05-01T02:24:49.680Z,68.83
2023-05-01T02:27:55.762Z,69.44
2023-05-01T02:30:58.462Z,69.28
2023-05-01T02:34:02.086Z,70.11
2023-05-01T02:37:06.920Z,69.39
2023-05-01T02:40:11.878Z,69.22
2023-05-01T02:43:15.674Z,70.63
2023-05-01T02:46:18.637Z,69.86
2023-05-01T02:49:21.468Z,69.89
2023-05-01T02:52:24.504Z,70.02
2023-05-01T02:55:35.930Z,70.42
2023-05-01T02:58:38.137Z,70.85
2023-05-01T03:01:40.094Z,72.25
2023-05-01T03:04:42.169Z,71.03
2023-05-01T03:07:45.568Z,70.69
2023-05-01T03:10:47.955Z,69.89
2023-05-01T03:13:49.517Z,70.32
2023-05-01T03:16:51.204Z,70.21
2023-05-01T03:19:53.516Z,69.78
2023-05-01T03:22:57.018Z,69.60
2023-05-01T03:25:59.461Z,70.15
2023-05-01T03:29:01.188Z,69.85
2023-05-01T03:32:03.074Z,69.27
2023-05-01T03:35:05.361Z,69.07
2023-05-01T03:38:08.890Z,69.28
2023-05-01T03:41:29.311Z,70.21
2023-05-01T03:44:54.244Z,70.90
2023-05-01T03:47:57.329Z,70.86
2023-05-01T03:50:59.480Z,71.24
2023-05-01T03:54:03.895Z,71.17
2023-05-01T03:57:14.707Z,70.34
2023-05-01T04:00:16.887Z,69.89
2023-05-01T04:03:19.185Z,70.07
2023-05-01T04:06:22.989Z,71.24
2023-05-01T04:09:26.692Z,72.01
2023-05-01T04:12:28.342Z,71.22
2023-05-01T04:15:29.939Z,71.65
2023-05-01T04:18:31.842Z,72.36
2023-05-01T04:21:34.580Z,71.45
2023-05-01T04:24:37.899Z,70.69
2023-05-01T04:27:39.677Z,71.08
2023-05-01T04:30:41.244Z,70.99
2023-05-01T04:33:43.485Z,70.97
2023-05-01T04:36:45.433Z,70.30
2023-05-01T04:39:48.575Z,69.72
2023-05-01T04:42:50.270Z,69.01
2023-05-01T04:45:51.985Z,69.92
2023-05-01T04:48:53.870Z,70.68
2023-05-01T04:51:55.961Z,69.86
2023-05-01T04:55:01.320Z,71.05
2023-05-01T04:58:05.706Z,70.79
2023-05-01T05:01:10.792Z,71.26
2023-05-01T05:04:12.892Z,70.84
2023-05-01T05:07:14.577Z,70.61
2023-05-01T05:10:37.460Z,71.03
2023-05-01T05:13:51.790Z,70.61
2023-05-01T05:16:53.587Z,70.06
2023-05-01T05:19:55.509Z,69.66
2023-05-01T05:22:57.358Z,69.95
2023-05-01T05:26:01.892Z,70.08
2023-05-01T05:29:03.849Z,70.16
2023-05-01T05:32:06.300Z,69.25
2023-05-01T05:35:08.539Z,69.55
2023-05-01T05:38:10.650Z,70.16
2023-05-01T05:41:16.766Z,69.81
2023-05-01T05:44:19.388Z,69.93
2023-05-01T05:47:21.133Z,69.74
2023-05-01T05:50:22.745Z,70.40
2023-05-01T05:53:26.295Z,70.20
2023-05-01T05:56:30.443Z,69.82
2023-05-01T05:59:33.044Z,69.92
2023-05-01T06:02:34.764Z,69.87
2023-05-01T06:05:37.144Z,69.87
2023-05-01T06:08:38.924Z,69.57
2023-05-01T06:11:46.139Z,70.37
2023-05-01T06:14:47.722Z,69.80
2023-05-01T06:17:50.295Z,69.33
2023-05-01T06:20:52.665Z,69.33
2023-05-01T06:23:54.611Z,69.19
2023-05-01T06:27:07.910Z,69.41
2023-05-01T06:30:10.860Z,68.65
2023-05-01T06:33:15.722Z,69.26
2023-05-01T06:36:20.646Z,68.43
2023-05-01T06:39:22.740Z,68.68
2023-05-01T06:42:26.257Z,69.25
2023-05-01T06:45:31.939Z,69.94
2023-05-01T06:48:33.542Z,69.65
2023-05-01T06:51:35.528Z,69.04
2023-05-01T06:54:37.155Z,70.47
2023-05-01T06:57:40.434Z,70.00
2023-05-01T07:00:42.119Z,69.12
2023-05-01T07:03:43.859Z,69.32
2023-05-01T07:06:45.594Z,68.50
2023-05-01T07:09:47.405Z,68.68
2023-05-01T07:12:50.868Z,68.65
2023-05-01T07:15:54.673Z,68.41
2023-05-01T07:18:57.314Z,67.43
2023-05-01T07:21:59.036Z,66.90
2023-05-01T07:25:02.162Z,66.24
2023-05-01T07:28:06.092Z,66.20
2023-05-01T07:31:09.498Z,66.80
2023-05-01T07:34:11.805Z,65.72
2023-05-01T07:37:19.074Z,65.58
2023-05-01T07:40:20.663Z,65.90
2023-05-01T07:43:23.753Z,66.16
2023-05-01T07:46:25.581Z,65.70
2023-05-01T07:49:27.337Z,65.30
2023-05-01T07:52:29.422Z,65.22
2023-05-01T07:55:31.337Z,64.23
2023-05-01T07:58:34.743Z,65.14
2023-05-01T08:01:37.348Z,62.91
2023-05-01T08:04:39.077Z,63.65
2023-05-01T08:07:40.746Z,65.50
2023-05-01T08:10:42.326Z,64.63
2023-05-01T08:13:45.432Z,63.37
2023-05-01T08:16:47.313Z,62.40
2023-05-01T08:19:50.088Z,64.31
2023-05-01T08:22:52.099Z,64.05
2023-05-01T08:25:54.058Z,62.42
2023-05-01T08:28:57.710Z,61.50
2023-05-01T08:31:59.440Z,61.00
2023-05-01T08:35:01.169Z,61.97
2023-05-01T08:38:03.211Z,63.41
2023-05-01T08:41:05.027Z,63.99
2023-05-01T08:44:08.889Z,63.48
2023-05-01T08:47:12.711Z,62.26
2023-05-01T08:50:16.545Z,62.22
2023-05-01T08:53:19.010Z,60.94
2023-05-01T08:56:23.817Z,60.04
2023-05-01T08:59:28.709Z,60.14
2023-05-01T09:02:32.119Z,59.81
2023-05-01T09:05:33.917Z,60.36
2023-05-01T09:08:37.519Z,59.21
2023-05-01T09:11:39.751Z,60.81
2023-05-01T09:14:48.032Z,61.17
2023-05-01T09:17:50.855Z,60.68
2023-05-01T09:20:53.360Z,60.04
2023-05-01T09:23:55.090Z,58.97
2023-05-01T09:26:58.956Z,58.86
2023-05-01T09:30:02.699Z,58.84
2023-05-01T09:33:05.555Z,58.56
2023-05-01T09:36:08.579Z,58.12
2023-05-01T09:39:23.140Z,57.32
2023-05-01T09:42:24.789Z,57.35
2023-05-01T09:45:27.993Z,57.24
2023-05-01T09:48:34.122Z,57.86
2023-05-01T09:51:36.899Z,57.09
2023-05-01T09:54:38.609Z,56.41
2023-05-01T09:57:40.400Z,56.46
2023-05-01T10:00:51.604Z,56.39
2023-05-01T10:03:54.093Z,53.81
2023-05-01T10:06:56.769Z,54.48
2023-05-01T10:10:00.750Z,55.50
2023-05-01T10:13:13.237Z,54.91
2023-05-01T10:16:36.320Z,56.19
2023-05-01T10:19:39.685Z,56.48
2023-05-01T10:22:41.518Z,54.85
2023-05-01T10:25:44.253Z,54.85
2023-05-01T10:28:47.503Z,56.30
2023-05-01T10:31:49.150Z,55.52
2023-05-01T10:34:55.469Z,56.06
2023-05-01T10:37:59.887Z,54.18
2023-05-01T10:41:01.465Z,55.11
2023-05-01T10:44:24.328Z,55.25
2023-05-01T10:47:44.650Z,53.94
2023-05-01T10:51:05.025Z,51.58
2023-05-01T10:54:23.758Z,52.30
2023-05-01T10:57:40.167Z,51.85
2023-05-01T11:00:42.254Z,51.42
2023-05-01T11:03:44.698Z,50.62
2023-05-01T11:07:14.084Z,49.48
2023-05-01T11:10:27.303Z,50.81
2023-05-01T11:13:44.093Z,48.03
2023-05-01T11:16:46.834Z,47.98
2023-05-01T11:19:49.110Z,49.01
2023-05-01T11:22:51.579Z,46.80
2023-05-01T11:26:05.015Z,47.08
2023-05-01T11:29:06.904Z,46.57
2023-05-01T11:32:10.893Z,47.81
2023-05-01T11:35:17.173Z,49.55
2023-05-01T11:38:18.992Z,47.69
2023-05-01T11:41:22.847Z,48.91
2023-05-01T11:44:24.539Z,48.89
2023-05-01T11:47:26.602Z,48.63
2023-05-01T11:50:32.044Z,48.54
2023-05-01T11:53:34.036Z,48.23
2023-05-01T11:56:37.645Z,48.97
2023-05-01T11:59:42.546Z,49.43
2023-05-01T12:02:58.112Z,49.43
2023-05-01T12:05:59.943Z,48.95
2023-05-01T12:09:02.005Z,49.17
2023-05-01T12:12:05.734Z,49.25
2023-05-01T12:15:07.699Z,49.56
2023-05-01T12:18:09.530Z,50.12
2023-05-01T12:21:15.338Z,48.49
2023-05-01T12:24:17.921Z,49.04
2023-05-01T12:27:21.091Z,48.10
2023-05-01T12:30:24.824Z,48.98
2023-05-01T12:33:26.644Z,48.28
2023-05-01T12:36:29.148Z,48.64
2023-05-01T12:39:38.324Z,48.83
2023-05-01T12:42:42.979Z,49.31
2023-05-01T12:45:44.650Z,47.48
2023-05-01T12:48:46.922Z,48.38
2023-05-01T12:51:49.248Z,48.90
2023-05-01T12:54:51.384Z,48.77
2023-05-01T12:57:54.917Z,48.32
2023-05-01T13:00:56.553Z,48.83
2023-05-01T13:03:58.415Z,49.01
2023-05-01T13:07:00.278Z,49.25
2023-05-01T13:10:03.527Z,48.59
2023-05-01T13:13:06.877Z,48.34
2023-05-01T13:16:10.380Z,48.18
2023-05-01T13:19:13.119Z,49.09
2023-05-01T13:22:14.749Z,48.75
2023-05-01T13:25:17.508Z,47.79
2023-05-01T13:28:20.914Z,47.55
2023-05-01T13:31:22.537Z,48.39
2023-05-01T13:34:27.658Z,48.72
2023-05-01T13:37:32.452Z,47.84
2023-05-01T13:40:34.217Z,47.54
2023-05-01T13:43:37.791Z,48.75
2023-05-01T13:46:42.224Z,48.42
2023-05-01T13:49:44.498Z,46.72
2023-05-01T13:52:46.367Z,47.17
2023-05-01T13:55:48.143Z,46.60
2023-05-01T13:58:51.499Z,47.42
2023-05-01T14:01:53.138Z,45.42
2023-05-01T14:04:55.898Z,44.94
2023-05-01T14:07:59.000Z,45.33
2023-05-01T14:11:04.322Z,43.67
2023-05-01T14:14:07.639Z,43.30
2023-05-01T14:17:09.821Z,43.97
2023-05-01T14:20:12.245Z,42.85
2023-05-01T14:23:16.995Z,43.15
2023-05-01T14:26:19.979Z,43.25
2023-05-01T14:29:26.147Z,42.71
2023-05-01T14:32:30.273Z,41.42
2023-05-01T14:35:32.141Z,42.20
2023-05-01T14:38:39.299Z,41.33
2023-05-01T14:41:42.486Z,40.08
2023-05-01T14:44:45.471Z,38.98
2023-05-01T14:47:48.088Z,40.12
2023-05-01T14:50:49.846Z,41.91
2023-05-01T14:53:51.507Z,41.50
2023-05-01T14:56:53.525Z,42.05
2023-05-01T14:59:56.569Z,42.86
2023-05-01T15:02:58.830Z,43.10
2023-05-01T15:06:00.986Z,43.86
2023-05-01T15:09:02.640Z,44.00
2023-05-01T15:12:06.733Z,43.64
2023-05-01T15:15:10.989Z,43.81
2023-05-01T15:18:12.614Z,44.18
2023-05-01T15:21:14.252Z,44.19
2023-05-01T15:24:16.847Z,43.47
2023-05-01T15:27:18.645Z,44.21
2023-05-01T15:30:21.516Z,43.43
2023-05-01T15:33:23.431Z,43.58
2023-05-01T15:36:25.503Z,43.85
2023-05-01T15:39:30.463Z,44.57
2023-05-01T15:42:32.272Z,43.91
2023-05-01T15:45:35.741Z,44.28
2023-05-01T15:48:38.505Z,44.03
2023-05-01T15:51:40.177Z,44.57
2023-05-01T15:54:42.034Z,43.81
2023-05-01T15:57:45.104Z,44.60
2023-05-01T16:00:49.580Z,43.88
2023-05-01T16:03:52.017Z,44.44
2023-05-01T16:06:55.271Z,44.91
2023-05-01T16:09:58.554Z,46.13
2023-05-01T16:13:00.419Z,45.63
2023-05-01T16:16:03.823Z,46.39
2023-05-01T16:19:05.721Z,45.76
2023-05-01T16:22:07.232Z,47.12
2023-05-01T16:25:09.677Z,46.08
2023-05-01T16:28:11.685Z,44.27
2023-05-01T16:31:26.706Z,44.09
2023-05-01T16:34:29.318Z,44.05
2023-05-01T16:37:31.754Z,45.68
2023-05-01T16:40:33.637Z,44.78
2023-05-01T16:43:36.132Z,45.37
2023-05-01T16:46:41.237Z,45.65
2023-05-01T16:49:43.038Z,46.60
2023-05-01T16:52:44.630Z,46.85
2023-05-01T16:55:46.281Z,46.70
2023-05-01T16:58:47.895Z,46.77
2023-05-01T17:01:51.582Z,47.45
2023-05-01T17:04:53.487Z,47.92
2023-05-01T17:07:55.414Z,48.03
2023-05-01T17:10:57.288Z,48.42
2023-05-01T17:13:59.166Z,48.36
2023-05-01T17:17:02.262Z,48.72
2023-05-01T17:20:04.851Z,48.99
2023-05-01T17:23:10.072Z,49.61
2023-05-01T17:26:13.584Z,49.97
2023-05-01T17:29:15.445Z,50.00
2023-05-01T17:32:29.586Z,50.27
2023-05-01T17:35:38.328Z,50.73
2023-05-01T17:38:40.267Z,50.77
2023-05-01T17:41:41.815Z,50.93
2023-05-01T17:44:43.615Z,51.07
2023-05-01T17:47:46.801Z,51.31
2023-05-01T17:50:48.836Z,51.43
2023-05-01T17:53:50.439Z,51.63
2023-05-01T17:56:52.194Z,51.91
2023-05-01T17:59:53.902Z,51.75
2023-05-01T18:02:56.963Z,51.64
2023-05-01T18:05:58.708Z,51.74
2023-05-01T18:09:01.260Z,51.86
2023-05-01T18:12:03.283Z,51.87
2023-05-01T18:15:05.207Z,52.00
2023-05-01T18:18:08.228Z,51.81
2023-05-01T18:21:09.839Z,52.23
2023-05-01T18:24:11.826Z,51.93
2023-05-01T18:27:13.537Z,53.08
2023-05-01T18:30:15.221Z,53.94
2023-05-01T18:33:18.653Z,54.51
2023-05-01T18:36:21.334Z,55.38
2023-05-01T18:39:23.019Z,55.84
2023-05-01T18:42:24.517Z,56.80
2023-05-01T18:45:26.370Z,57.64
2023-05-01T18:48:29.403Z,57.82
2023-05-01T18:51:31.774Z,58.12
2023-05-01T18:54:33.539Z,59.95
2023-05-01T18:57:36.019Z,62.08
2023-05-01T19:00:37.563Z,64.05
2023-05-01T19:03:41.186Z,62.64
2023-05-01T19:06:42.886Z,68.17
2023-05-01T19:09:44.824Z,70.03
2023-05-01T19:12:46.479Z,72.97
2023-05-01T19:15:48.435Z,75.86
2023-05-01T19:18:51.647Z,75.89
2023-05-01T19:21:53.264Z,81.83
2023-05-01T19:24:55.334Z,81.74
2023-05-01T19:27:57.336Z,83.71
2023-05-01T19:30:59.066Z,86.45
2023-05-01T19:34:02.087Z,87.73
2023-05-01T19:37:03.845Z,91.36
2023-05-01T19:40:06.516Z,92.04
2023-05-01T19:43:08.282Z,93.78
2023-05-01T19:46:10.022Z,92.19
2023-05-01T19:49:12.973Z,94.61
2023-05-01T19:52:14.926Z,96.00
2023-05-01T19:55:17.235Z,97.51
2023-05-01T19:58:18.930Z,95.99
2023-05-01T20:01:21.279Z,94.07
2023-05-01T20:04:24.894Z,94.96
2023-05-01T20:07:27.864Z,94.96
2023-05-01T20:10:29.718Z,98.92
2023-05-01T20:13:31.738Z,99.09
2023-05-01T20:16:33.459Z,99.19
2023-05-01T20:19:39.536Z,96.95
2023-05-01T20:22:41.802Z,99.34
2023-05-01T20:25:43.869Z,99.16
2023-05-01T20:28:46.098Z,100.00
2023-05-01T20:31:48.664Z,100.00
2023-05-01T20:34:55.382Z,100.00
2023-05-01T20:37:57.575Z,100.00
2023-05-01T20:40:59.141Z,100.00
2023-05-01T20:44:02.607Z,100.00
2023-05-01T20:47:04.350Z,100.00
2023-05-01T20:50:07.836Z,100.00
2023-05-01T20:53:09.597Z,100.00
2023-05-01T20:56:11.334Z,100.00
2023-05-01T20:59:13.619Z,100.00
2023-05-01T21:02:15.242Z,100.00
2023-05-01T21:05:18.349Z,100.00
2023-05-01T21:08:20.012Z,100.00
2023-05-01T21:11:21.812Z,100.00
2023-05-01T21:14:27.700Z,100.00
2023-05-01T21:17:33.705Z,100.00
2023-05-01T21:20:40.659Z,100.00
2023-05-01T21:23:46.268Z,100.00
2023-05-01T21:26:50.632Z,99.57
2023-05-01T21:29:54.861Z,100.00
2023-05-01T21:33:01.090Z,100.00
2023-05-01T21:36:04.421Z,100.00
2023-05-01T21:39:06.023Z,100.00
2023-05-01T21:42:07.992Z,100.00
2023-05-01T21:45:10.502Z,100.00
2023-05-01T21:48:14.918Z,100.00
2023-05-01T21:51:17.965Z,100.00
2023-05-01T21:54:21.496Z,100.00
2023-05-01T21:57:23.963Z,100.00
2023-05-01T22:00:25.987Z,100.00
2023-05-01T22:03:27.911Z,100.00
2023-05-01T22:06:31.047Z,100.00
2023-05-01T22:09:32.873Z,100.00
2023-05-01T22:12:34.660Z,100.00
2023-05-01T22:15:36.449Z,100.00
2023-05-01T22:18:41.128Z,100.00
2023-05-01T22:21:44.034Z,99.88
2023-05-01T22:24:46.006Z,99.36
2023-05-01T22:27:47.638Z,98.81
2023-05-01T22:30:49.212Z,98.97
2023-05-01T22:33:50.878Z,100.00
2023-05-01T22:36:53.855Z,100.00
2023-05-01T22:39:55.666Z,100.00
2023-05-01T22:42:57.484Z,100.00
2023-05-01T22:45:59.729Z,100.00
2023-05-01T22:49:03.344Z,100.00
2023-05-01T22:52:06.838Z,100.00
2023-05-01T22:55:08.610Z,100.00
2023-05-01T22:58:10.369Z,100.00
2023-05-01T23:01:12.065Z,100.00
2023-05-01T23:04:14.339Z,100.00
2023-05-01T23:07:18.314Z,100.00
2023-05-01T23:10:21.077Z,100.00
2023-05-01T23:13:23.616Z,100.00
2023-05-01T23:16:25.433Z,100.00
2023-05-01T23:19:27.319Z,100.00
2023-05-01T23:22:35.129Z,100.00
2023-05-01T23:25:36.929Z,100.00
2023-05-01T23:28:42.222Z,100.00
2023-05-01T23:31:46.691Z,100.00
2023-05-01T23:34:49.031Z,100.00
2023-05-01T23:37:53.543Z,100.00
2023-05-01T23:40:55.614Z,100.00
2023-05-01T23:43:57.316Z,100.00
2023-05-01T23:46:59.133Z,100.00
2023-05-01T23:50:01.531Z,100.00
2023-05-01T23:53:07.679Z,100.00
2023-05-01T23:56:09.185Z,100.00
2023-05-01T23:59:11.947Z,100.00
